Royal City, WA

1:11 AM PDT en Octubre 01, 2014 (GMT -0700)
N Royal Lake | Change Station
CLOSE
Current Station
Estación meteorológica personal
Location: Othello, WA
Altura: 883 ft
Estaciones meteorológicas cercanas

Alt 883 ft 46.88 °N, 119.37 °W | Updated 9 minutes ago

Despejado
Despejado
49.6 ° F
Sensación térmica 47 ° F
N
5.8
Viento Variable Viento desde ONO

Hoy
Alta -- | Baja -- ° F
--% Posibilidad de precipitaciones
Ayer
Alta -- | Baja -- ° F
Precip. -- pul
6:57 AM 6:37 PM
Creciente, 45% visible
Presión 30.06 pul
Visibilidad 10.0 Millas
Nubes Despejado
Vientos helados 47 ° F
Punto de rocío 41 ° F
Humedad 71%
Precipitaciones 0.00 pul
Espesor de la nieve No disponible.
UV 0 de una escala de 12
Polen 2.40 de una escala de 12
Calidad del aire No disponible.
Flu Activity No disponible.
METAR KMWH 010752Z AUTO 29008KT 10SM CLR 11/02 A3006 RMK AO2 SLP177 T01110022 402330100

More Conditions Fewer Conditions

Presión 30.06 pul
Visibilidad 10.0 Millas
Nubes Despejado
Vientos helados 47 ° F
Punto de rocío 41 ° F
Humedad 71%
Precipitaciones 0.00 pul
Espesor de la nieve No disponible.
UV 0 de una escala de 12
Polen 2.40 de una escala de 12
Calidad del aire No disponible.
Flu Activity No disponible.
METAR KMWH 010752Z AUTO 29008KT 10SM CLR 11/02 A3006 RMK AO2 SLP177 T01110022 402330100

More Conditions Fewer Conditions

10-Day Weather Forecast

Almanac

Astronomía

Oct. 01, 2014 Salida Puesta
Hora real 6:57 AM PDT 6:37 PM PDT
Crepúsculo civil 6:26 AM PDT 7:07 PM PDT
Crepúsculo náutico 5:51 AM PDT 7:43 PM PDT
Crepúsculo astronómico 5:15 AM PDT 8:18 PM PDT
Luna 2:18 PM PDT 11:59 PM PDT
Horas de luz 12h 41m
Horas de luz
11h 40m
Tomorrow will be 3m 19s shorter.
Creciente, 45% of the Moon is Illuminated
Hoy
Creciente
Oct 1
Cuarto creciente
Oct 8
Luna llena
Oct 15
Cuarto menguante
Oct 23
Nueva

Extremos de hoy

Máximos del estado Bajos del estado

Community

WunderPhotos

Upload Photos

1,757,902 ¡fotos cargadas!

Nearby

Grosos de nieve

Estación Profundido Altura
Harts Pass 0 in 6500 ft
Alpine Meadows 0 in 3500 ft
Bunchgrass Meadow 0 in 5000 ft
June Lake 0 in 3340 ft
Sasse Ridge 0 in 4200 ft

Actividad de terremotos

Ciudad Distance Mag. Tiempo y dato
No hay informes recientes de la actividad sísmica.
Magnitud mínima muestra es 2,5.

Temperaturas de aguas costeras

Lugar Temperatura
Sin partes meteorológicos de las estaciones

Estaciones meteorológicas cercanas